Abadi — V8V2002 — position and weather

sailwx.info

Track history (hours):
 
Tides and Currents Weather Stations Pressure Air Temp Water Temp Dewpoint Dewpoint Depression Visibility Wind Speed Wind Dir Waves Ship Positions

Abadi

Last reported at 2017-Mar-16 11:33 UTC. Time now 2017-Mar-30 06:54 UTC.
Position N 01°15' E 104°05'.
Warning: this ship's position is 13 days out of date.

Type: Ship (hazmat cat A). MMSI: 508011000.

Date/timePositionNaut miles runAvg speedWind from/ knotsBaromVisibWave heightAir tempDewpointWater temp
2017-Mar-16 11:33N 01°15' E 104°05'1212.4
2017-Mar-16 10:32N 01°12' E 103°53'1312.7
2017-Mar-16 09:33N 01°04' E 103°42'1212.2
2017-Mar-16 08:33N 01°07' E 103°30'1613.6
2017-Mar-16 07:23N 01°17' E 103°18'4615.7
2017-Mar-16 04:28N 01°42' E 102°40'1617.0
2017-Mar-16 03:33N 01°48' E 102°26'3213.6
2017-Mar-16 01:10N 02°12' E 102°03'5 0.7
2017-Mar-15 18:08N 02°15' E 102°06'0 0.0
2017-Mar-15 16:30N 02°15' E 102°06'0 0.0
2017-Mar-15 15:19N 02°15' E 102°06'0 0.0
2017-Mar-15 14:22N 02°15' E 102°06'0 0.0
2017-Mar-15 13:32N 02°15' E 102°06'0 0.0
2017-Mar-15 12:33N 02°15' E 102°06'0 0.0
2017-Mar-15 11:32N 02°15' E 102°06'0 0.0
2017-Mar-15 10:26N 02°15' E 102°06'0 0.0
2017-Mar-15 09:25N 02°15' E 102°06'0 0.0
2017-Mar-15 08:30N 02°15' E 102°06'0 0.0
2017-Mar-15 03:26N 02°15' E 102°06'13 2.6
2017-Mar-14 22:31N 02°03' E 102°10'1111.0
2017-Mar-14 21:32N 01°56' E 102°18'1211.6
2017-Mar-14 20:29N 01°51' E 102°29'1211.9
2017-Mar-14 19:29N 01°46' E 102°40'5111.9
2017-Mar-14 15:13N 01°18' E 103°22'811.6
2017-Mar-14 14:33N 01°14' E 103°29'1212.6
2017-Mar-14 13:33N 01°10' E 103°41'1211.8
2017-Mar-14 12:33N 01°12' E 103°52'  
Track history (hours):
 
Tides and Currents Weather Stations Pressure Air Temp Water Temp Dewpoint Dewpoint Depression Visibility Wind Speed Wind Dir Waves Ship Positions

Abadi

Last reported at 2017-Mar-16 11:33 UTC. Time now 2017-Mar-30 06:54 UTC.
Position N 01°15' E 104°05'.
Warning: this ship's position is 13 days out of date.

Type: Ship (hazmat cat A). MMSI: 508011000.

Date/timePositionNaut miles runAvg speedWind from/ knotsBaromVisibWave heightAir tempDewpointWater temp
2017-Mar-16 11:33N 01°15' E 104°05'1212.4
2017-Mar-16 10:32N 01°12' E 103°53'1312.7
2017-Mar-16 09:33N 01°04' E 103°42'1212.2
2017-Mar-16 08:33N 01°07' E 103°30'1613.6
2017-Mar-16 07:23N 01°17' E 103°18'4615.7
2017-Mar-16 04:28N 01°42' E 102°40'1617.0
2017-Mar-16 03:33N 01°48' E 102°26'3213.6
2017-Mar-16 01:10N 02°12' E 102°03'5 0.7
2017-Mar-15 18:08N 02°15' E 102°06'0 0.0
2017-Mar-15 16:30N 02°15' E 102°06'0 0.0
2017-Mar-15 15:19N 02°15' E 102°06'0 0.0
2017-Mar-15 14:22N 02°15' E 102°06'0 0.0
2017-Mar-15 13:32N 02°15' E 102°06'0 0.0
2017-Mar-15 12:33N 02°15' E 102°06'0 0.0
2017-Mar-15 11:32N 02°15' E 102°06'0 0.0
2017-Mar-15 10:26N 02°15' E 102°06'0 0.0
2017-Mar-15 09:25N 02°15' E 102°06'0 0.0
2017-Mar-15 08:30N 02°15' E 102°06'0 0.0
2017-Mar-15 03:26N 02°15' E 102°06'13 2.6
2017-Mar-14 22:31N 02°03' E 102°10'1111.0
2017-Mar-14 21:32N 01°56' E 102°18'1211.6
2017-Mar-14 20:29N 01°51' E 102°29'1211.9
2017-Mar-14 19:29N 01°46' E 102°40'5111.9
2017-Mar-14 15:13N 01°18' E 103°22'811.6
2017-Mar-14 14:33N 01°14' E 103°29'1212.6
2017-Mar-14 13:33N 01°10' E 103°41'1211.8
2017-Mar-14 12:33N 01°12' E 103°52'  

Dump ship's entire track history